Time;durP1;ratioP1;P1;durP2;ratioP2;P2;SDS_P1;SDS_P2;PMS_P1;PMS_P2;Temp;Humidity;BMP_temperature;BMP_pressure;BME280_temperature;BME280_humidity;BME280_pressure;Samples;Min_cycle;Max_cycle;Signal;HPM_P1;HPM_P2
2021/01/27 00:01:26;;;;;;;;;;;16.20;99.90;;;15.31;100.00;101875.34;5051989;28;19925;-63
2021/01/27 00:03:54;;;;;;;;;;;16.10;99.90;;;15.29;100.00;101877.53;5052074;28;19929;-64
2021/01/27 00:06:21;;;;;;;;;;;16.10;99.90;;;15.28;100.00;101875.94;5051739;28;20267;-63
2021/01/27 00:08:49;;;;;;;;;;;16.10;99.90;;;15.28;100.00;101875.94;5052111;28;19925;-63
2021/01/27 00:11:16;;;;;;;;;;;16.10;99.90;;;15.28;100.00;101872.41;5051607;28;19931;-63
2021/01/27 00:13:43;;;;;;;;;;;16.10;99.90;;;15.28;100.00;101875.13;5051903;28;19932;-63
2021/01/27 00:16:10;;;;;;;;;;;16.10;99.90;;;15.27;100.00;101873.50;5051874;28;19929;-63
2021/01/27 00:18:37;;;;;;;;;;;16.10;99.90;;;15.27;100.00;101884.41;5052221;28;20367;-63
2021/01/27 00:21:05;;;;;;;;;;;16.10;99.90;;;15.28;100.00;101872.41;5051492;28;19924;-63
2021/01/27 00:23:33;;;;;;;;;;;16.10;99.90;;;15.28;100.00;101867.78;5051577;28;19925;-63
2021/01/27 00:26:00;;;;;;;;;;;16.10;99.90;;;15.27;100.00;101866.13;5052063;28;19948;-64
2021/01/27 00:28:27;;;;;;;;;;;16.10;99.90;;;15.26;100.00;101860.97;5052119;28;20389;-63
2021/01/27 00:30:54;;;;;;;;;;;16.10;99.90;;;15.24;100.00;101855.84;5051551;28;19978;-62
2021/01/27 00:33:22;;;;;;;;;;;16.10;99.90;;;15.26;100.00;101860.97;5051630;28;19951;-62
2021/01/27 00:35:50;;;;;;;;;;;16.10;99.90;;;15.25;100.00;101853.91;5051914;28;19932;-63
2021/01/27 00:38:21;;;;;;;;;;;16.10;99.90;;;15.26;100.00;101848.16;5051623;28;19955;-63
2021/01/27 00:40:48;;;;;;;;;;;16.10;99.90;;;15.26;100.00;101850.88;5055637;28;19928;-63
2021/01/27 00:43:16;;;;;;;;;;;16.10;99.90;;;15.27;100.00;101846.25;5055584;28;19929;-63
2021/01/27 00:45:43;;;;;;;;;;;16.10;99.90;;;15.24;100.00;101842.22;5056001;28;19947;-63
2021/01/27 00:48:11;;;;;;;;;;;16.10;99.90;;;15.23;100.00;101837.84;5055690;28;20270;-63
2021/01/27 00:50:38;;;;;;;;;;;16.10;99.90;;;15.23;100.00;101837.84;5055374;28;19925;-63
2021/01/27 00:53:06;;;;;;;;;;;16.00;99.90;;;15.23;100.00;101837.84;5055313;28;19947;-63
2021/01/27 00:55:34;;;;;;;;;;;16.00;99.90;;;15.23;100.00;101843.31;5056022;28;20279;-63
2021/01/27 00:58:02;;;;;;;;;;;16.10;99.90;;;15.22;100.00;101840.88;5055476;28;19932;-63
2021/01/27 01:00:31;;;;;;;;;;;16.10;99.90;;;15.22;100.00;101832.72;5055511;28;19962;-63
2021/01/27 01:02:58;;;;;;;;;;;16.10;99.90;;;15.20;100.00;101833.00;5055170;28;19929;-63
2021/01/27 01:05:27;;;;;;;;;;;16.00;99.90;;;15.21;100.00;101831.09;5055668;28;20365;-63
2021/01/27 01:07:55;;;;;;;;;;;16.00;99.90;;;15.21;100.00;101822.91;5055106;28;20336;-63
2021/01/27 01:10:23;;;;;;;;;;;16.00;99.90;;;15.20;100.00;101824.81;5055163;28;19932;-63
2021/01/27 01:12:51;;;;;;;;;;;16.00;99.90;;;15.20;100.00;101829.47;5055072;28;19932;-62
2021/01/27 01:15:19;;;;;;;;;;;16.00;99.90;;;15.19;100.00;101833.31;5055436;28;19975;-62
2021/01/27 01:17:46;;;;;;;;;;;16.00;99.90;;;15.17;100.00;101817.25;5054962;28;19925;-63
2021/01/27 01:20:22;;;;;;;;;;;16.00;99.90;;;15.17;100.00;101819.16;5055221;28;20342;-62
2021/01/27 01:22:51;;;;;;;;;;;16.00;99.90;;;15.16;100.00;101823.81;5054621;28;20448;-64
2021/01/27 01:25:21;;;;;;;;;;;16.00;99.90;;;15.17;100.00;101827.31;5055206;28;20345;-62
2021/01/27 01:27:49;;;;;;;;;;;16.00;99.90;;;15.15;100.00;101814.00;5054852;28;19929;-62
2021/01/27 01:30:22;;;;;;;;;;;16.00;99.90;;;15.13;100.00;101813.50;5054893;28;19925;-62
2021/01/27 01:32:49;;;;;;;;;;;16.00;99.90;;;15.15;100.00;101813.19;5054522;28;19928;-62
2021/01/27 01:35:19;;;;;;;;;;;16.00;99.90;;;15.15;100.00;101815.91;5055102;28;19928;-63
2021/01/27 01:37:46;;;;;;;;;;;16.00;99.90;;;15.14;100.00;101817.03;5054404;28;19924;-63
2021/01/27 01:40:15;;;;;;;;;;;16.00;99.90;;;15.13;100.00;101808.06;5054943;28;19935;-63
2021/01/27 01:42:42;;;;;;;;;;;16.00;99.90;;;15.13;100.00;101807.25;5054247;28;19925;-63
2021/01/27 01:45:22;;;;;;;;;;;15.90;99.90;;;15.12;100.00;101806.44;5055126;28;20185;-63
2021/01/27 01:47:53;;;;;;;;;;;15.90;99.90;;;15.13;100.00;101796.34;5054393;28;19932;-63
2021/01/27 01:50:20;;;;;;;;;;;15.90;99.90;;;15.12;100.00;101802.91;5053990;28;19974;-63
2021/01/27 01:52:48;;;;;;;;;;;15.90;99.90;;;15.11;100.00;101804.00;5053825;28;19928;-62
2021/01/27 01:55:16;;;;;;;;;;;15.90;99.90;;;15.10;100.00;101807.84;5054820;28;19929;-62
2021/01/27 01:57:44;;;;;;;;;;;16.00;99.90;;;15.09;100.00;101804.31;5054081;28;19925;-63
2021/01/27 02:00:12;;;;;;;;;;;15.90;99.90;;;15.08;100.00;101799.94;5054613;28;19924;-63
2021/01/27 02:02:40;;;;;;;;;;;15.90;99.90;;;15.07;100.00;101803.78;5053717;28;19932;-63
2021/01/27 02:05:13;;;;;;;;;;;15.90;99.90;;;15.05;100.00;101799.72;5054637;28;19925;-62
2021/01/27 02:07:41;;;;;;;;;;;15.90;99.90;;;15.06;100.00;101801.34;5053890;28;20309;-64
2021/01/27 02:10:09;;;;;;;;;;;15.90;99.90;;;15.07;100.00;101806.53;5054265;28;19932;-62
2021/01/27 02:12:50;;;;;;;;;;;15.90;99.90;;;15.06;100.00;101799.44;5053580;28;20003;-63
2021/01/27 02:15:36;;;;;;;;;;;15.90;99.90;;;15.08;100.00;101797.22;5054558;28;19924;-63
2021/01/27 02:18:11;;;;;;;;;;;15.90;99.90;;;15.09;100.00;101795.31;5054025;28;19925;-62
2021/01/27 02:21:01;;;;;;;;;;;15.90;99.90;;;15.09;100.00;101796.13;5053970;28;19924;-63
2021/01/27 02:23:46;;;;;;;;;;;15.90;99.90;;;15.10;100.00;101792.31;5053705;28;20386;-63
2021/01/27 02:26:33;;;;;;;;;;;15.90;99.90;;;15.10;100.00;101792.31;5053787;28;19932;-63
2021/01/27 02:29:36;;;;;;;;;;;15.90;99.90;;;15.09;100.00;101785.22;5054202;28;20385;-63
2021/01/27 02:32:28;;;;;;;;;;;15.90;99.90;;;15.09;100.00;101792.59;5053434;28;19929;-63
2021/01/27 02:35:04;;;;;;;;;;;15.90;99.90;;;15.08;100.00;101788.22;5054014;28;20398;-62
2021/01/27 02:37:35;;;;;;;;;;;15.90;99.90;;;15.08;100.00;101788.22;5053607;28;19929;-63
2021/01/27 02:40:09;;;;;;;;;;;15.90;99.90;;;15.07;100.00;101787.44;5053866;28;20053;-63
2021/01/27 02:42:40;;;;;;;;;;;15.90;99.90;;;15.08;100.00;101786.31;5053220;28;19925;-62
2021/01/27 02:45:13;;;;;;;;;;;15.90;99.90;;;15.10;100.00;101786.03;5054198;28;19929;-63
2021/01/27 02:47:45;;;;;;;;;;;15.90;99.90;;;15.10;100.00;101778.69;5053345;28;19929;-63
2021/01/27 02:50:18;;;;;;;;;;;16.00;99.90;;;15.11;100.00;101780.28;5053657;28;19935;-63
2021/01/27 02:52:48;;;;;;;;;;;16.00;99.90;;;15.10;100.00;101778.69;5053040;28;20302;-63
2021/01/27 02:55:18;;;;;;;;;;;15.90;99.90;;;15.10;100.00;101781.41;5053503;28;19962;-63
2021/01/27 02:57:49;;;;;;;;;;;15.90;99.90;;;15.09;100.00;101785.22;5052999;28;19932;-62
2021/01/27 03:00:21;;;;;;;;;;;15.90;99.90;;;15.09;100.00;101784.41;5053299;28;19931;-64
2021/01/27 03:02:51;;;;;;;;;;;15.90;99.90;;;15.08;100.00;101789.06;5052804;28;19933;-62
2021/01/27 03:05:23;;;;;;;;;;;15.90;99.90;;;15.07;100.00;101784.72;5053332;28;20325;-62
2021/01/27 03:07:53;;;;;;;;;;;15.90;99.90;;;15.07;100.00;101784.72;5053004;28;19924;-63
2021/01/27 03:10:23;;;;;;;;;;;15.90;99.90;;;15.07;100.00;101787.44;5052903;28;20393;-63
2021/01/27 03:12:51;;;;;;;;;;;15.90;99.90;;;15.06;100.00;101782.28;5052542;28;20373;-63
2021/01/27 03:15:20;;;;;;;;;;;15.90;99.90;;;15.06;100.00;101787.72;5053260;28;19954;-63
2021/01/27 03:17:51;;;;;;;;;;;15.90;99.90;;;15.06;100.00;101785.81;5052791;28;20405;-63
2021/01/27 03:20:22;;;;;;;;;;;15.90;99.90;;;15.06;100.00;101783.09;5053099;28;19931;-63
2021/01/27 03:22:52;;;;;;;;;;;15.90;99.90;;;15.06;100.00;101776.84;5052231;28;19925;-63
2021/01/27 03:25:24;;;;;;;;;;;15.90;99.90;;;15.05;100.00;101773.28;5053064;28;20580;-63
2021/01/27 03:27:58;;;;;;;;;;;15.90;99.90;;;15.05;100.00;101775.22;5052623;28;19929;-63
2021/01/27 03:30:25;;;;;;;;;;;15.90;99.90;;;15.05;100.00;101776.03;5052775;28;19935;-63
2021/01/27 03:32:59;;;;;;;;;;;15.90;99.90;;;15.05;100.00;101773.28;5052129;28;20344;-62
2021/01/27 03:35:38;;;;;;;;;;;15.90;99.90;;;15.04;100.00;101763.53;5053061;28;20363;-63
2021/01/27 03:38:11;;;;;;;;;;;15.90;99.90;;;15.03;100.00;101761.91;5052537;28;19925;-63
2021/01/27 03:40:39;;;;;;;;;;;15.90;99.90;;;15.03;100.00;101756.44;5052432;28;19978;-63
2021/01/27 03:43:09;;;;;;;;;;;15.90;99.90;;;15.03;100.00;101744.75;5052338;28;19929;-63
2021/01/27 03:45:41;;;;;;;;;;;15.90;99.90;;;15.02;100.00;101749.38;5052690;28;20271;-62
2021/01/27 03:48:12;;;;;;;;;;;15.90;99.90;;;15.03;100.00;101742.03;5052406;28;19925;-63
2021/01/27 03:50:42;;;;;;;;;;;15.90;99.90;;;15.02;100.00;101738.47;5051077;28;19936;-62
2021/01/27 03:53:13;;;;;;;;;;;15.90;99.90;;;15.02;100.00;101749.38;5052082;28;19925;-62
2021/01/27 03:55:45;;;;;;;;;;;15.80;99.90;;;15.01;100.00;101742.34;5052498;28;19929;-62
2021/01/27 03:58:16;;;;;;;;;;;15.90;99.90;;;15.02;100.00;101743.94;5052053;28;19929;-63
2021/01/27 04:00:45;;;;;;;;;;;15.90;99.90;;;15.02;100.00;101743.94;5052343;28;19925;-62
2021/01/27 04:03:17;;;;;;;;;;;15.90;99.90;;;15.03;100.00;101744.75;5052031;28;19966;-62
2021/01/27 04:05:45;;;;;;;;;;;15.90;99.90;;;15.03;100.00;101731.13;5052209;28;19932;-62
2021/01/27 04:08:12;;;;;;;;;;;15.90;99.90;;;15.04;100.00;101738.19;5052059;28;19936;-62
2021/01/27 04:10:40;;;;;;;;;;;15.90;99.90;;;15.04;100.00;101746.38;5051777;28;19942;-63
2021/01/27 04:13:07;;;;;;;;;;;15.80;99.90;;;15.03;100.00;101745.56;5051779;28;19925;-63
2021/01/27 04:15:34;;;;;;;;;;;15.90;99.90;;;15.04;100.00;101749.09;5051986;28;20333;-63
2021/01/27 04:18:02;;;;;;;;;;;15.90;99.90;;;15.03;100.00;101742.84;5052007;28;19948;-63
2021/01/27 04:20:29;;;;;;;;;;;15.90;99.90;;;15.05;100.00;101745.25;5051847;28;19925;-62
2021/01/27 04:22:57;;;;;;;;;;;15.90;99.90;;;15.05;100.00;101745.25;5051476;28;20406;-62
2021/01/27 04:25:25;;;;;;;;;;;15.90;99.90;;;15.05;100.00;101737.06;5051910;28;19936;-63
2021/01/27 04:27:52;;;;;;;;;;;15.90;99.90;;;15.05;100.00;101731.63;5051610;28;20401;-62
2021/01/27 04:30:22;;;;;;;;;;;15.90;99.90;;;15.05;100.00;101732.44;5051948;28;19925;-62
2021/01/27 04:32:49;;;;;;;;;;;15.90;99.90;;;15.07;100.00;101730.25;5051589;28;19925;-62
2021/01/27 04:35:17;;;;;;;;;;;15.90;99.90;;;15.07;100.00;101730.25;5051905;28;19932;-62
2021/01/27 04:37:44;;;;;;;;;;;15.90;99.90;;;15.06;100.00;101725.91;5051574;28;19932;-62
2021/01/27 04:40:15;;;;;;;;;;;15.90;99.90;;;15.07;100.00;101727.53;5051956;28;19925;-62
2021/01/27 04:42:43;;;;;;;;;;;15.90;99.90;;;15.06;100.00;101731.34;5051400;28;19929;-62
2021/01/27 04:45:11;;;;;;;;;;;15.90;99.90;;;15.08;100.00;101726.41;5051908;28;19929;-62
2021/01/27 04:47:43;;;;;;;;;;;15.90;99.90;;;15.09;100.00;101728.03;5051598;28;19932;-63
2021/01/27 04:50:17;;;;;;;;;;;15.90;99.90;;;15.12;100.00;101730.16;5051728;28;19924;-62
2021/01/27 04:53:01;;;;;;;;;;;15.90;99.90;;;15.12;100.00;101724.72;5051391;28;19932;-63
2021/01/27 04:55:49;;;;;;;;;;;15.90;99.90;;;15.13;100.00;101728.25;5051785;28;19939;-63
2021/01/27 04:58:21;;;;;;;;;;;15.90;99.90;;;15.11;100.00;101731.25;5051471;28;19932;-63
2021/01/27 05:00:59;;;;;;;;;;;15.90;99.90;;;15.10;100.00;101726.94;5051492;28;19935;-62
2021/01/27 05:03:52;;;;;;;;;;;15.90;99.90;;;15.12;100.00;101726.63;5051662;28;19925;-63
2021/01/27 05:06:23;;;;;;;;;;;15.90;99.90;;;15.09;100.00;101724.50;5051229;28;19931;-62
2021/01/27 05:08:57;;;;;;;;;;;15.90;99.90;;;15.10;100.00;101732.38;5051584;28;20386;-62
2021/01/27 05:11:27;;;;;;;;;;;15.90;99.90;;;15.11;100.00;101725.81;5051234;28;19931;-62
2021/01/27 05:13:56;;;;;;;;;;;15.90;99.90;;;15.11;100.00;101717.63;5051578;28;19975;-64
2021/01/27 05:16:25;;;;;;;;;;;15.90;99.90;;;15.11;100.00;101717.63;5051332;28;19925;-64
2021/01/27 05:18:55;;;;;;;;;;;15.90;99.90;;;15.07;100.00;101708.47;5051507;28;19936;-62
2021/01/27 05:21:26;;;;;;;;;;;15.90;99.90;;;15.07;100.00;101719.34;5051101;28;19925;-63
2021/01/27 05:23:53;;;;;;;;;;;15.90;99.90;;;15.05;100.00;101705.19;5051507;28;19932;-62
2021/01/27 05:26:22;;;;;;;;;;;15.90;99.90;;;15.05;100.00;101709.84;5052395;28;19928;-62
2021/01/27 05:29:03;;;;;;;;;;;15.90;99.90;;;15.04;100.00;101710.97;5055428;28;19925;-62
2021/01/27 05:32:07;;;;;;;;;;;15.90;99.90;;;15.03;100.00;101701.97;5054801;28;19929;-62
2021/01/27 05:34:36;;;;;;;;;;;15.80;99.90;;;15.01;100.00;101701.47;5013115;28;19930;-62
2021/01/27 05:37:09;;;;;;;;;;;15.80;99.90;;;15.01;100.00;101706.91;5012539;28;19933;-62
2021/01/27 05:39:37;;;;;;;;;;;15.80;99.90;;;14.99;100.00;101705.56;5035510;28;20366;-64
2021/01/27 05:42:13;;;;;;;;;;;15.80;99.90;;;14.99;100.00;101706.38;5054244;28;19932;-62
2021/01/27 05:44:41;;;;;;;;;;;15.80;99.90;;;15.00;100.00;101704.47;5055024;28;20406;-62
2021/01/27 05:47:33;;;;;;;;;;;15.80;99.90;;;15.00;100.00;101708.03;5054361;28;19924;-64
2021/01/27 05:50:15;;;;;;;;;;;15.80;99.90;;;15.00;100.00;101704.47;5054814;28;20309;-64
2021/01/27 05:52:43;;;;;;;;;;;15.80;99.90;;;15.00;100.00;101708.03;5054284;28;19929;-64
2021/01/27 05:55:11;;;;;;;;;;;15.80;99.90;;;14.98;100.00;101707.53;5054711;28;19928;-64
2021/01/27 05:57:38;;;;;;;;;;;15.80;99.90;;;14.98;100.00;101706.72;5054240;28;19932;-63
2021/01/27 06:00:12;;;;;;;;;;;15.80;99.90;;;14.97;100.00;101705.88;5054847;28;20050;-62
2021/01/27 06:02:40;;;;;;;;;;;15.80;99.90;;;14.96;100.00;101706.16;5054203;28;19940;-63
2021/01/27 06:05:09;;;;;;;;;;;15.80;99.90;;;14.96;100.00;101709.72;5054447;28;19975;-63
2021/01/27 06:07:36;;;;;;;;;;;15.80;99.90;;;14.95;100.00;101704.56;5054036;28;19924;-63
2021/01/27 06:10:32;;;;;;;;;;;15.70;99.90;;;14.91;100.00;101709.81;5054421;28;19967;-63
2021/01/27 06:13:25;;;;;;;;;;;15.70;99.90;;;14.89;100.00;101711.22;5053922;28;19924;-63
2021/01/27 06:15:53;;;;;;;;;;;15.70;99.90;;;14.87;100.00;101718.84;5053958;28;19929;-62
2021/01/27 06:18:31;;;;;;;;;;;15.70;99.90;;;14.85;100.00;101719.16;5054095;28;19932;-62
2021/01/27 06:21:20;;;;;;;;;;;15.70;99.90;;;14.81;100.00;101723.56;5054060;28;19987;-63
2021/01/27 06:24:17;;;;;;;;;;;15.70;99.90;;;14.80;100.00;101724.69;5054017;28;19924;-63
2021/01/27 06:27:05;;;;;;;;;;;15.60;99.90;;;14.78;100.00;101722.25;5053516;28;19928;-62
2021/01/27 06:29:43;;;;;;;;;;;15.60;99.90;;;14.78;100.00;101722.25;5033239;28;19929;-63
2021/01/27 06:32:29;;;;;;;;;;;15.60;99.90;;;14.78;100.00;101721.44;5053401;28;20443;-62
2021/01/27 06:35:12;;;;;;;;;;;15.60;99.90;;;14.74;100.00;101710.31;5054095;28;19929;-63
2021/01/27 06:38:11;;;;;;;;;;;15.50;99.90;;;14.72;100.00;101711.72;5053025;28;19933;-63
2021/01/27 06:40:47;;;;;;;;;;;15.50;99.90;;;14.69;100.00;101715.84;5011609;28;19933;-62
2021/01/27 06:43:41;;;;;;;;;;;15.50;99.90;;;14.66;100.00;101712.91;5046703;28;19924;-64
2021/01/27 06:46:37;;;;;;;;;;;15.50;99.90;;;14.65;100.00;101714.81;5037868;28;19947;-64
2021/01/27 06:49:19;;;;;;;;;;;15.40;99.90;;;14.64;100.00;101715.13;5053815;28;19929;-62
2021/01/27 06:52:21;;;;;;;;;;;15.50;99.90;;;14.63;100.00;101717.03;5053151;28;20286;-63
2021/01/27 06:55:09;;;;;;;;;;;15.40;99.90;;;14.64;100.00;101717.84;5053517;28;19928;-62
2021/01/27 06:57:51;;;;;;;;;;;15.50;99.90;;;14.64;100.00;101729.56;5052887;28;19928;-63
2021/01/27 07:00:30;;;;;;;;;;;15.50;99.90;;;14.62;100.00;101726.28;5053284;28;19925;-62
2021/01/27 07:03:14;;;;;;;;;;;15.40;99.90;;;14.60;100.00;101730.41;5053087;28;19925;-63
2021/01/27 07:06:18;;;;;;;;;;;15.40;99.90;;;14.56;100.00;101729.41;5053151;28;20421;-62
2021/01/27 07:09:22;;;;;;;;;;;15.40;99.90;;;14.52;100.00;101729.19;5053356;28;19978;-63
2021/01/27 07:11:59;;;;;;;;;;;15.40;99.90;;;14.53;100.00;101741.66;4990961;28;20308;-63
2021/01/27 07:14:41;;;;;;;;;;;15.30;99.90;;;14.54;100.00;101726.97;4991684;28;19926;-62
2021/01/27 07:17:34;;;;;;;;;;;15.40;99.90;;;14.53;100.00;101740.88;5029313;28;20015;-63
2021/01/27 07:20:14;;;;;;;;;;;15.30;99.90;;;14.53;100.00;101741.66;5053054;28;19931;-62
2021/01/27 07:22:47;;;;;;;;;;;15.30;99.90;;;14.53;100.00;101747.13;5052615;28;19936;-64
2021/01/27 07:25:19;;;;;;;;;;;15.30;99.90;;;14.54;100.00;101742.50;5053236;28;19924;-64
2021/01/27 07:27:51;;;;;;;;;;;15.30;99.90;;;14.54;100.00;101745.22;5052385;28;20337;-61
2021/01/27 07:30:21;;;;;;;;;;;15.30;99.90;;;14.50;100.00;101750.41;5052724;28;19933;-62
2021/01/27 07:32:51;;;;;;;;;;;15.30;99.90;;;14.45;100.00;101750.50;5052215;28;19933;-62
2021/01/27 07:35:21;;;;;;;;;;;15.30;99.90;;;14.45;100.00;101760.56;5052981;28;19925;-62
2021/01/27 07:37:52;;;;;;;;;;;15.30;99.90;;;14.45;100.00;101766.00;5052136;28;19932;-63
2021/01/27 07:40:23;;;;;;;;;;;15.30;99.90;;;14.48;100.00;101762.72;5052868;28;19951;-62
2021/01/27 07:42:57;;;;;;;;;;;15.30;99.90;;;14.53;100.00;101768.09;5052044;28;19979;-62
2021/01/27 07:45:27;;;;;;;;;;;15.30;99.90;;;14.57;100.00;101763.69;5052691;28;19932;-64
2021/01/27 07:48:02;;;;;;;;;;;15.40;99.90;;;14.61;100.00;101770.97;5051976;28;19925;-64
2021/01/27 07:50:31;;;;;;;;;;;15.40;99.90;;;14.61;100.00;101770.16;5052049;28;19928;-62
2021/01/27 07:53:14;;;;;;;;;;;15.40;99.90;;;14.60;100.00;101765.81;5052089;28;20481;-64
2021/01/27 07:55:58;;;;;;;;;;;15.40;99.90;;;14.64;100.00;101775.03;5052432;28;19929;-64
2021/01/27 07:58:29;;;;;;;;;;;15.40;99.90;;;14.67;100.00;101774.44;5052164;28;20366;-62
2021/01/27 08:00:59;;;;;;;;;;;15.50;99.90;;;14.70;100.00;101773.84;5052053;28;19928;-62
2021/01/27 08:03:40;;;;;;;;;;;15.50;99.90;;;14.75;100.00;101771.03;5052030;28;20374;-62
2021/01/27 08:06:09;;;;;;;;;;;15.50;99.90;;;14.78;100.00;101771.25;5051962;28;19951;-63
2021/01/27 08:08:48;;;;;;;;;;;15.60;99.90;;;14.81;100.00;101769.84;5051528;28;21336;-62
2021/01/27 08:11:20;;;;;;;;;;;15.60;99.90;;;14.80;100.00;101762.81;5051801;28;20011;-62
2021/01/27 08:13:47;;;;;;;;;;;15.60;99.90;;;14.81;100.00;101774.50;5051939;28;20370;-62
2021/01/27 08:16:29;;;;;;;;;;;15.60;99.90;;;14.81;100.00;101769.84;5051627;28;19932;-62
2021/01/27 08:19:21;;;;;;;;;;;15.60;99.90;;;14.80;100.00;101768.25;5052386;28;19925;-63
2021/01/27 08:22:07;;;;;;;;;;;15.60;99.90;;;14.78;100.00;101770.44;5051675;28;19935;-61
2021/01/27 08:24:57;;;;;;;;;;;15.60;99.90;;;14.81;100.00;101769.03;5051956;28;19924;-62
2021/01/27 08:27:35;;;;;;;;;;;15.60;99.90;;;14.82;100.00;101767.94;5051819;28;19925;-64
2021/01/27 08:30:25;;;;;;;;;;;15.60;99.90;;;14.86;100.00;101766.25;5051815;28;20420;-62
2021/01/27 08:33:26;;;;;;;;;;;15.70;99.90;;;14.94;100.00;101769.13;5051545;28;19936;-62
2021/01/27 08:36:05;;;;;;;;;;;15.70;99.90;;;15.05;100.00;101758.88;5052197;28;20380;-62
2021/01/27 08:38:34;;;;;;;;;;;15.80;99.90;;;15.16;100.00;101768.50;5051931;28;19979;-62
2021/01/27 08:41:02;;;;;;;;;;;15.90;99.90;;;15.21;100.00;101763.78;5051734;28;20308;-62
2021/01/27 08:43:39;;;;;;;;;;;15.90;99.90;;;15.26;100.00;101765.59;5051631;28;19925;-61
2021/01/27 08:46:34;;;;;;;;;;;16.00;99.90;;;15.28;100.00;101769.66;5051546;28;19932;-64
2021/01/27 08:49:02;;;;;;;;;;;16.00;99.90;;;15.32;100.00;101775.31;5048165;28;19929;-64
2021/01/27 08:51:43;;;;;;;;;;;16.10;99.90;;;15.41;100.00;101770.00;5051318;28;19929;-64
2021/01/27 08:54:46;;;;;;;;;;;16.10;99.90;;;15.54;100.00;101785.59;5051966;28;19983;-62
2021/01/27 08:57:22;;;;;;;;;;;16.30;99.90;;;15.54;100.00;101777.41;5051579;28;19924;-62
2021/01/27 08:59:59;;;;;;;;;;;16.30;99.90;;;15.60;100.00;101784.41;5052549;28;19932;-62
2021/01/27 09:02:45;;;;;;;;;;;16.30;99.90;;;15.70;100.00;101786.97;5055084;28;19925;-62
2021/01/27 09:05:19;;;;;;;;;;;16.40;99.90;;;15.74;100.00;101794.25;5055759;28;19932;-62
2021/01/27 09:07:54;;;;;;;;;;;16.50;99.90;;;15.69;100.00;101796.22;5055410;28;19924;-62
2021/01/27 09:10:26;;;;;;;;;;;16.50;99.90;;;15.65;100.00;101798.78;5055106;28;19924;-62
2021/01/27 09:12:53;;;;;;;;;;;16.40;99.90;;;15.56;100.00;101802.47;5055131;28;19929;-63
2021/01/27 09:15:26;;;;;;;;;;;16.40;99.90;;;15.49;100.00;101808.31;5055635;28;19932;-62
2021/01/27 09:17:53;;;;;;;;;;;16.30;99.90;;;15.47;100.00;101804.25;5055226;28;19925;-63
2021/01/27 09:20:23;;;;;;;;;;;16.20;99.90;;;15.47;100.00;101809.69;5055179;28;19925;-62
2021/01/27 09:22:57;;;;;;;;;;;16.20;99.90;;;15.53;100.00;101811.25;5054712;28;19978;-62
2021/01/27 09:25:25;;;;;;;;;;;16.30;99.90;;;15.61;100.00;101810.56;5055511;28;20374;-64
2021/01/27 09:28:01;;;;;;;;;;;16.40;99.90;;;15.67;100.00;101814.81;5054967;28;19929;-62
2021/01/27 09:30:29;;;;;;;;;;;16.40;99.90;;;15.80;100.00;101816.78;5055000;28;19967;-62
2021/01/27 09:33:11;;;;;;;;;;;16.50;99.90;;;15.93;100.00;101815.97;5054512;28;19933;-63
2021/01/27 09:35:38;;;;;;;;;;;16.60;99.90;;;16.03;100.00;101817.69;5055177;28;20337;-63
2021/01/27 09:38:09;;;;;;;;;;;16.70;99.90;;;16.05;100.00;101824.47;5054846;28;19932;-62
2021/01/27 09:40:38;;;;;;;;;;;16.80;99.90;;;15.98;100.00;101829.53;5054583;28;19925;-64
2021/01/27 09:43:09;;;;;;;;;;;16.70;99.90;;;16.09;100.00;101827.41;5054543;28;20294;-63
2021/01/27 09:45:39;;;;;;;;;;;16.80;99.90;;;16.11;100.00;101836.91;5054933;28;19925;-63
2021/01/27 09:48:08;;;;;;;;;;;16.80;99.90;;;16.23;100.00;101833.69;5054443;28;19928;-64
2021/01/27 09:50:38;;;;;;;;;;;16.90;99.90;;;16.31;100.00;101839.25;5054407;28;19936;-63
2021/01/27 09:53:08;;;;;;;;;;;17.00;99.90;;;16.25;100.00;101837.75;5054386;28;19947;-63
2021/01/27 09:55:35;;;;;;;;;;;17.00;99.90;;;16.21;100.00;101838.63;5054837;28;19924;-62
2021/01/27 09:58:06;;;;;;;;;;;16.90;99.90;;;16.21;100.00;101847.63;5054355;28;19924;-62
2021/01/27 10:00:35;;;;;;;;;;;16.90;99.90;;;16.25;100.00;101842.38;5054197;28;20283;-63
2021/01/27 10:03:17;;;;;;;;;;;17.00;99.90;;;16.31;100.00;101849.34;5053993;28;19925;-63
2021/01/27 10:05:45;;;;;;;;;;;17.00;99.90;;;16.17;100.00;101856.75;5054314;28;19924;-62
2021/01/27 10:08:17;;;;;;;;;;;16.90;99.90;;;16.12;100.00;101854.91;5054377;28;19974;-62
2021/01/27 10:10:45;;;;;;;;;;;16.90;99.90;;;16.19;100.00;101849.06;5053876;28;19925;-63
2021/01/27 10:13:13;;;;;;;;;;;16.90;99.90;;;16.21;100.00;101847.63;5053110;28;19982;-63
2021/01/27 10:15:41;;;;;;;;;;;17.00;99.90;;;16.16;100.00;101846.94;5054286;28;20382;-62
2021/01/27 10:18:10;;;;;;;;;;;16.90;99.90;;;16.16;100.00;101839.56;5054149;28;19979;-62
2021/01/27 10:20:41;;;;;;;;;;;16.90;99.90;;;16.17;100.00;101852.06;5053932;28;19924;-62
2021/01/27 10:23:09;;;;;;;;;;;16.90;99.90;;;16.28;100.00;101860.88;5053679;28;20374;-63
2021/01/27 10:25:38;;;;;;;;;;;17.00;99.90;;;16.27;100.00;101860.06;5054037;28;19929;-63
2021/01/27 10:28:19;;;;;;;;;;;17.00;99.90;;;16.28;100.00;101872.63;5053852;28;19928;-63
2021/01/27 10:30:50;;;;;;;;;;;17.00;99.90;;;16.34;100.00;101867.84;5053580;28;19978;-63
2021/01/27 10:33:38;;;;;;;;;;;17.10;99.90;;;16.54;100.00;101874.81;5053396;28;19928;-63
2021/01/27 10:36:31;;;;;;;;;;;17.20;99.90;;;16.59;100.00;101885.69;5053592;28;20400;-63
2021/01/27 10:39:20;;;;;;;;;;;17.30;99.90;;;16.51;100.00;101883.63;5053989;28;19983;-64
2021/01/27 10:41:49;;;;;;;;;;;17.30;99.90;;;16.56;100.00;101881.66;5053106;28;19925;-62
2021/01/27 10:44:29;;;;;;;;;;;17.30;99.90;;;16.64;100.00;101882.84;5053696;28;19929;-64
2021/01/27 10:46:59;;;;;;;;;;;17.40;99.90;;;16.58;100.00;101881.34;5053182;28;20389;-63
2021/01/27 10:49:26;;;;;;;;;;;17.30;99.90;;;16.55;100.00;101882.75;5053930;28;20393;-63
2021/01/27 10:51:55;;;;;;;;;;;17.30;99.90;;;16.61;100.00;101888.91;5052896;28;19936;-64
2021/01/27 10:54:24;;;;;;;;;;;17.30;99.90;;;16.69;100.00;101896.38;5053593;28;19929;-62
2021/01/27 10:56:53;;;;;;;;;;;17.40;99.90;;;16.67;100.00;101904.91;5052979;28;20012;-64
2021/01/27 10:59:21;;;;;;;;;;;17.40;99.90;;;16.71;100.00;101907.84;5053621;28;19952;-64
2021/01/27 11:01:48;;;;;;;;;;;17.40;99.90;;;16.78;100.00;101903.56;5052669;28;19998;-63
2021/01/27 11:04:15;;;;;;;;;;;17.50;99.90;;;16.82;100.00;101903.78;5053340;28;19929;-64
2021/01/27 11:06:43;;;;;;;;;;;17.60;99.90;;;16.85;100.00;101903.97;5052916;28;19983;-65
2021/01/27 11:09:12;;;;;;;;;;;17.60;99.90;;;16.85;100.00;101905.88;5053257;28;19925;-65
2021/01/27 11:11:39;;;;;;;;;;;17.60;99.90;;;16.89;100.00;101907.72;5052387;28;19932;-65
2021/01/27 11:14:07;;;;;;;;;;;17.60;99.90;;;16.92;100.00;101906.28;5053081;28;19924;-65
2021/01/27 11:16:34;;;;;;;;;;;17.70;99.90;;;16.72;100.00;101904.78;5052632;28;19932;-65
2021/01/27 11:19:02;;;;;;;;;;;17.50;99.90;;;16.61;100.00;101903.38;5053266;28;19948;-65
2021/01/27 11:21:29;;;;;;;;;;;17.40;99.90;;;16.69;100.00;101904.56;5052397;28;19936;-64
2021/01/27 11:23:56;;;;;;;;;;;17.40;99.90;;;16.84;100.00;101904.28;5051893;28;19925;-65
2021/01/27 11:26:24;;;;;;;;;;;17.50;99.90;;;16.93;100.00;101905.19;5052717;28;19925;-64
2021/01/27 11:28:52;;;;;;;;;;;17.70;99.90;;;16.98;100.00;101887.88;5053038;28;19928;-65
2021/01/27 11:31:19;;;;;;;;;;;17.70;99.90;;;17.04;100.00;101892.09;5052214;28;20383;-65